sensor_id;sensor_type;location;lat;lon;timestamp;pressure;altitude;pressure_sealevel;temperature;humidity
47983;BME280;33751;50.816;-1.214;2024-02-16T00:00:08;100539.25;;;27.24;100.00
47983;BME280;33751;50.816;-1.214;2024-02-16T00:02:34;100537.06;;;27.35;100.00
47983;BME280;33751;50.816;-1.214;2024-02-16T00:05:01;100535.83;;;27.30;100.00
47983;BME280;33751;50.816;-1.214;2024-02-16T00:07:28;100539.71;;;27.40;100.00
47983;BME280;33751;50.816;-1.214;2024-02-16T00:09:55;100544.79;;;27.20;100.00
47983;BME280;33751;50.816;-1.214;2024-02-16T00:12:21;100551.87;;;27.57;100.00
47983;BME280;33751;50.816;-1.214;2024-02-16T00:14:48;100561.62;;;27.11;100.00
47983;BME280;33751;50.816;-1.214;2024-02-16T00:17:14;100563.03;;;27.14;100.00
47983;BME280;33751;50.816;-1.214;2024-02-16T00:19:42;100561.73;;;27.15;100.00
47983;BME280;33751;50.816;-1.214;2024-02-16T00:22:09;100558.33;;;27.30;100.00
47983;BME280;33751;50.816;-1.214;2024-02-16T00:24:35;100564.02;;;26.93;100.00
47983;BME280;33751;50.816;-1.214;2024-02-16T00:27:02;100562.92;;;27.14;100.00
47983;BME280;33751;50.816;-1.214;2024-02-16T00:29:29;100574.74;;;26.94;100.00
47983;BME280;33751;50.816;-1.214;2024-02-16T00:31:57;100576.11;;;27.25;100.00
47983;BME280;33751;50.816;-1.214;2024-02-16T00:34:24;100578.44;;;27.60;100.00
47983;BME280;33751;50.816;-1.214;2024-02-16T00:36:51;100574.87;;;27.28;100.00
47983;BME280;33751;50.816;-1.214;2024-02-16T00:39:18;100572.26;;;27.02;100.00
47983;BME280;33751;50.816;-1.214;2024-02-16T00:41:44;100566.60;;;27.33;100.00
47983;BME280;33751;50.816;-1.214;2024-02-16T00:44:11;100566.44;;;27.15;100.00
47983;BME280;33751;50.816;-1.214;2024-02-16T00:46:37;100573.90;;;27.05;100.00
47983;BME280;33751;50.816;-1.214;2024-02-16T00:49:05;100582.35;;;27.04;100.00
47983;BME280;33751;50.816;-1.214;2024-02-16T00:51:31;100586.17;;;27.29;100.00
47983;BME280;33751;50.816;-1.214;2024-02-16T00:53:58;100597.70;;;27.26;100.00
47983;BME280;33751;50.816;-1.214;2024-02-16T00:56:24;100598.58;;;27.52;100.00
47983;BME280;33751;50.816;-1.214;2024-02-16T00:58:51;100602.56;;;27.41;100.00
47983;BME280;33751;50.816;-1.214;2024-02-16T01:01:17;100605.59;;;27.39;100.00
47983;BME280;33751;50.816;-1.214;2024-02-16T01:03:44;100610.22;;;27.38;100.00
47983;BME280;33751;50.816;-1.214;2024-02-16T01:06:10;100611.55;;;27.52;100.00
47983;BME280;33751;50.816;-1.214;2024-02-16T01:08:37;100611.08;;;27.30;100.00
47983;BME280;33751;50.816;-1.214;2024-02-16T01:11:04;100608.12;;;27.30;100.00
47983;BME280;33751;50.816;-1.214;2024-02-16T01:13:30;100607.81;;;27.28;100.00
47983;BME280;33751;50.816;-1.214;2024-02-16T01:15:57;100602.67;;;27.18;100.00
47983;BME280;33751;50.816;-1.214;2024-02-16T01:18:24;100596.79;;;26.84;100.00
47983;BME280;33751;50.816;-1.214;2024-02-16T01:20:51;100591.26;;;27.21;100.00
47983;BME280;33751;50.816;-1.214;2024-02-16T01:23:18;100592.59;;;26.82;100.00
47983;BME280;33751;50.816;-1.214;2024-02-16T01:25:45;100594.62;;;27.17;100.00
47983;BME280;33751;50.816;-1.214;2024-02-16T01:28:11;100601.80;;;27.10;100.00
47983;BME280;33751;50.816;-1.214;2024-02-16T01:30:39;100609.44;;;26.97;100.00
47983;BME280;33751;50.816;-1.214;2024-02-16T01:33:06;100608.68;;;27.14;100.00
47983;BME280;33751;50.816;-1.214;2024-02-16T01:35:33;100609.11;;;26.98;100.00
47983;BME280;33751;50.816;-1.214;2024-02-16T01:38:00;100611.17;;;27.16;100.00
47983;BME280;33751;50.816;-1.214;2024-02-16T01:40:28;100618.57;;;27.10;100.00
47983;BME280;33751;50.816;-1.214;2024-02-16T01:42:55;100624.08;;;27.26;100.00
47983;BME280;33751;50.816;-1.214;2024-02-16T01:45:22;100623.66;;;27.26;100.00
47983;BME280;33751;50.816;-1.214;2024-02-16T01:47:50;100625.52;;;26.73;100.00
47983;BME280;33751;50.816;-1.214;2024-02-16T01:50:18;100623.79;;;27.33;100.00
47983;BME280;33751;50.816;-1.214;2024-02-16T01:52:47;100628.15;;;27.30;100.00
47983;BME280;33751;50.816;-1.214;2024-02-16T01:55:15;100629.33;;;27.21;100.00
47983;BME280;33751;50.816;-1.214;2024-02-16T01:57:43;100634.27;;;27.39;100.00
47983;BME280;33751;50.816;-1.214;2024-02-16T02:00:11;100640.69;;;26.90;100.00
47983;BME280;33751;50.816;-1.214;2024-02-16T02:02:38;100640.45;;;27.42;100.00
47983;BME280;33751;50.816;-1.214;2024-02-16T02:05:05;100646.20;;;27.20;100.00
47983;BME280;33751;50.816;-1.214;2024-02-16T02:07:32;100653.17;;;27.04;100.00
47983;BME280;33751;50.816;-1.214;2024-02-16T02:09:59;100667.83;;;27.03;100.00
47983;BME280;33751;50.816;-1.214;2024-02-16T02:12:26;100682.98;;;27.09;100.00
47983;BME280;33751;50.816;-1.214;2024-02-16T02:14:52;100691.81;;;26.82;100.00
47983;BME280;33751;50.816;-1.214;2024-02-16T02:17:19;100689.70;;;27.22;100.00
47983;BME280;33751;50.816;-1.214;2024-02-16T02:19:46;100689.50;;;27.08;100.00
47983;BME280;33751;50.816;-1.214;2024-02-16T02:22:15;100699.11;;;27.42;100.00
47983;BME280;33751;50.816;-1.214;2024-02-16T02:24:42;100698.24;;;26.98;100.00
47983;BME280;33751;50.816;-1.214;2024-02-16T02:27:08;100691.66;;;26.99;100.00
47983;BME280;33751;50.816;-1.214;2024-02-16T02:29:35;100693.14;;;27.08;100.00
47983;BME280;33751;50.816;-1.214;2024-02-16T02:32:02;100697.55;;;27.06;100.00
47983;BME280;33751;50.816;-1.214;2024-02-16T02:34:29;100699.55;;;27.10;100.00
47983;BME280;33751;50.816;-1.214;2024-02-16T02:36:57;100697.20;;;27.05;100.00
47983;BME280;33751;50.816;-1.214;2024-02-16T02:39:23;100690.04;;;27.02;100.00
47983;BME280;33751;50.816;-1.214;2024-02-16T02:41:50;100686.63;;;27.00;100.00
47983;BME280;33751;50.816;-1.214;2024-02-16T02:44:17;100690.50;;;26.98;100.00
47983;BME280;33751;50.816;-1.214;2024-02-16T02:46:44;100703.19;;;26.73;100.00
47983;BME280;33751;50.816;-1.214;2024-02-16T02:49:11;100717.81;;;26.93;100.00
47983;BME280;33751;50.816;-1.214;2024-02-16T02:51:37;100732.35;;;26.84;100.00
47983;BME280;33751;50.816;-1.214;2024-02-16T02:54:04;100740.69;;;26.86;100.00
47983;BME280;33751;50.816;-1.214;2024-02-16T02:56:31;100747.30;;;26.85;100.00
47983;BME280;33751;50.816;-1.214;2024-02-16T02:58:58;100757.99;;;26.52;100.00
47983;BME280;33751;50.816;-1.214;2024-02-16T03:01:24;100759.21;;;26.84;100.00
47983;BME280;33751;50.816;-1.214;2024-02-16T03:03:51;100762.02;;;26.79;100.00
47983;BME280;33751;50.816;-1.214;2024-02-16T03:06:17;100757.46;;;26.87;100.00
47983;BME280;33751;50.816;-1.214;2024-02-16T03:08:45;100766.73;;;26.44;100.00
47983;BME280;33751;50.816;-1.214;2024-02-16T03:11:12;100789.28;;;26.79;100.00
47983;BME280;33751;50.816;-1.214;2024-02-16T03:13:38;100802.36;;;26.67;100.00
47983;BME280;33751;50.816;-1.214;2024-02-16T03:16:05;100810.62;;;26.66;100.00
47983;BME280;33751;50.816;-1.214;2024-02-16T03:18:33;100814.84;;;26.65;100.00
47983;BME280;33751;50.816;-1.214;2024-02-16T03:21:00;100816.19;;;26.38;100.00
47983;BME280;33751;50.816;-1.214;2024-02-16T03:23:26;100824.47;;;26.55;100.00
47983;BME280;33751;50.816;-1.214;2024-02-16T03:25:53;100822.96;;;26.59;100.00
47983;BME280;33751;50.816;-1.214;2024-02-16T03:28:20;100817.33;;;26.60;100.00
47983;BME280;33751;50.816;-1.214;2024-02-16T03:30:46;100818.20;;;26.42;100.00
47983;BME280;33751;50.816;-1.214;2024-02-16T03:33:13;100818.20;;;26.67;100.00
47983;BME280;33751;50.816;-1.214;2024-02-16T03:35:40;100821.75;;;26.74;100.00
47983;BME280;33751;50.816;-1.214;2024-02-16T03:38:07;100824.12;;;26.71;100.00
47983;BME280;33751;50.816;-1.214;2024-02-16T03:40:33;100828.68;;;26.43;100.00
47983;BME280;33751;50.816;-1.214;2024-02-16T03:43:00;100831.03;;;26.18;100.00
47983;BME280;33751;50.816;-1.214;2024-02-16T03:45:26;100837.27;;;26.39;100.00
47983;BME280;33751;50.816;-1.214;2024-02-16T03:47:54;100841.09;;;26.29;100.00
47983;BME280;33751;50.816;-1.214;2024-02-16T03:50:21;100838.67;;;26.48;100.00
47983;BME280;33751;50.816;-1.214;2024-02-16T03:52:48;100839.83;;;26.51;100.00
47983;BME280;33751;50.816;-1.214;2024-02-16T03:55:15;100838.58;;;26.35;100.00
47983;BME280;33751;50.816;-1.214;2024-02-16T03:57:41;100839.49;;;26.58;100.00
47983;BME280;33751;50.816;-1.214;2024-02-16T04:00:08;100840.51;;;26.43;100.00
47983;BME280;33751;50.816;-1.214;2024-02-16T04:02:35;100843.73;;;26.71;100.00
47983;BME280;33751;50.816;-1.214;2024-02-16T04:05:02;100838.65;;;26.32;100.00
47983;BME280;33751;50.816;-1.214;2024-02-16T04:07:29;100833.62;;;26.50;100.00
47983;BME280;33751;50.816;-1.214;2024-02-16T04:09:55;100839.64;;;26.18;100.00
47983;BME280;33751;50.816;-1.214;2024-02-16T04:12:22;100847.88;;;26.55;100.00
47983;BME280;33751;50.816;-1.214;2024-02-16T04:14:48;100854.65;;;26.48;100.00
47983;BME280;33751;50.816;-1.214;2024-02-16T04:17:15;100865.47;;;26.61;100.00
47983;BME280;33751;50.816;-1.214;2024-02-16T04:19:42;100866.67;;;26.56;100.00
47983;BME280;33751;50.816;-1.214;2024-02-16T04:22:09;100875.61;;;26.54;100.00
47983;BME280;33751;50.816;-1.214;2024-02-16T04:24:35;100882.50;;;26.60;100.00
47983;BME280;33751;50.816;-1.214;2024-02-16T04:27:02;100887.25;;;26.30;100.00
47983;BME280;33751;50.816;-1.214;2024-02-16T04:29:29;100895.98;;;26.51;100.00
47983;BME280;33751;50.816;-1.214;2024-02-16T04:31:56;100900.89;;;26.98;100.00
47983;BME280;33751;50.816;-1.214;2024-02-16T04:34:23;100905.36;;;26.44;100.00
47983;BME280;33751;50.816;-1.214;2024-02-16T04:36:49;100908.42;;;26.59;100.00
47983;BME280;33751;50.816;-1.214;2024-02-16T04:39:17;100921.62;;;26.69;100.00
47983;BME280;33751;50.816;-1.214;2024-02-16T04:41:44;100929.42;;;26.72;100.00
47983;BME280;33751;50.816;-1.214;2024-02-16T04:44:11;100938.86;;;26.14;100.00
47983;BME280;33751;50.816;-1.214;2024-02-16T04:46:37;100947.42;;;26.53;100.00
47983;BME280;33751;50.816;-1.214;2024-02-16T04:49:04;100954.19;;;26.25;100.00
47983;BME280;33751;50.816;-1.214;2024-02-16T04:51:30;100953.46;;;26.37;100.00
47983;BME280;33751;50.816;-1.214;2024-02-16T04:53:57;100950.43;;;26.51;100.00
47983;BME280;33751;50.816;-1.214;2024-02-16T04:56:24;100953.00;;;26.45;100.00
47983;BME280;33751;50.816;-1.214;2024-02-16T04:58:50;100956.45;;;26.36;100.00
47983;BME280;33751;50.816;-1.214;2024-02-16T05:01:17;100959.12;;;26.44;100.00
47983;BME280;33751;50.816;-1.214;2024-02-16T05:03:43;100964.88;;;26.45;100.00
47983;BME280;33751;50.816;-1.214;2024-02-16T05:06:10;100969.74;;;26.68;100.00
47983;BME280;33751;50.816;-1.214;2024-02-16T05:08:37;100974.98;;;26.35;100.00
47983;BME280;33751;50.816;-1.214;2024-02-16T05:11:04;100985.79;;;26.12;100.00
47983;BME280;33751;50.816;-1.214;2024-02-16T05:13:30;100994.10;;;26.42;100.00
47983;BME280;33751;50.816;-1.214;2024-02-16T05:15:57;100998.76;;;26.49;100.00
47983;BME280;33751;50.816;-1.214;2024-02-16T05:18:23;101007.90;;;26.00;100.00
47983;BME280;33751;50.816;-1.214;2024-02-16T05:20:51;101010.62;;;26.64;100.00
47983;BME280;33751;50.816;-1.214;2024-02-16T05:23:18;101012.68;;;26.36;100.00
47983;BME280;33751;50.816;-1.214;2024-02-16T05:25:44;101019.50;;;26.59;100.00
47983;BME280;33751;50.816;-1.214;2024-02-16T05:28:11;101024.65;;;26.40;100.00
47983;BME280;33751;50.816;-1.214;2024-02-16T05:30:38;101031.78;;;26.38;100.00
47983;BME280;33751;50.816;-1.214;2024-02-16T05:33:05;101035.57;;;26.71;100.00
47983;BME280;33751;50.816;-1.214;2024-02-16T05:35:31;101036.44;;;26.56;100.00
47983;BME280;33751;50.816;-1.214;2024-02-16T05:37:58;101037.61;;;26.26;100.00
47983;BME280;33751;50.816;-1.214;2024-02-16T05:40:25;101042.98;;;26.25;100.00
47983;BME280;33751;50.816;-1.214;2024-02-16T05:42:52;101047.78;;;26.35;100.00
47983;BME280;33751;50.816;-1.214;2024-02-16T05:45:19;101051.17;;;26.34;100.00
47983;BME280;33751;50.816;-1.214;2024-02-16T05:47:46;101054.38;;;26.25;100.00
47983;BME280;33751;50.816;-1.214;2024-02-16T05:50:14;101056.69;;;26.23;100.00
47983;BME280;33751;50.816;-1.214;2024-02-16T05:52:41;101057.02;;;25.88;100.00
47983;BME280;33751;50.816;-1.214;2024-02-16T05:55:09;101061.36;;;26.42;100.00
47983;BME280;33751;50.816;-1.214;2024-02-16T05:57:37;101063.66;;;26.00;100.00
47983;BME280;33751;50.816;-1.214;2024-02-16T06:00:05;101068.05;;;26.00;100.00
47983;BME280;33751;50.816;-1.214;2024-02-16T06:02:33;101073.82;;;26.12;100.00
47983;BME280;33751;50.816;-1.214;2024-02-16T06:05:01;101076.92;;;26.53;100.00
47983;BME280;33751;50.816;-1.214;2024-02-16T06:07:29;101081.63;;;26.01;100.00
47983;BME280;33751;50.816;-1.214;2024-02-16T06:09:57;101089.61;;;26.35;100.00
47983;BME280;33751;50.816;-1.214;2024-02-16T06:12:24;101091.41;;;26.33;100.00
47983;BME280;33751;50.816;-1.214;2024-02-16T06:14:51;101101.44;;;26.28;100.00
47983;BME280;33751;50.816;-1.214;2024-02-16T06:17:18;101105.38;;;26.01;100.00
47983;BME280;33751;50.816;-1.214;2024-02-16T06:19:44;101115.44;;;26.00;100.00
47983;BME280;33751;50.816;-1.214;2024-02-16T06:22:11;101123.82;;;26.27;100.00
47983;BME280;33751;50.816;-1.214;2024-02-16T06:24:37;101131.54;;;26.25;100.00
47983;BME280;33751;50.816;-1.214;2024-02-16T06:27:04;101138.83;;;26.28;100.00
47983;BME280;33751;50.816;-1.214;2024-02-16T06:29:31;101145.93;;;26.20;100.00
47983;BME280;33751;50.816;-1.214;2024-02-16T06:31:57;101150.68;;;25.86;100.00
47983;BME280;33751;50.816;-1.214;2024-02-16T06:34:24;101161.34;;;26.15;100.00
47983;BME280;33751;50.816;-1.214;2024-02-16T06:36:51;101168.55;;;25.85;100.00
47983;BME280;33751;50.816;-1.214;2024-02-16T06:39:18;101168.79;;;25.96;100.00
47983;BME280;33751;50.816;-1.214;2024-02-16T06:41:44;101169.65;;;26.47;100.00
47983;BME280;33751;50.816;-1.214;2024-02-16T06:44:12;101173.28;;;26.08;100.00
47983;BME280;33751;50.816;-1.214;2024-02-16T06:46:39;101178.31;;;26.39;100.00
47983;BME280;33751;50.816;-1.214;2024-02-16T06:49:06;101183.07;;;26.20;100.00
47983;BME280;33751;50.816;-1.214;2024-02-16T06:51:33;101189.53;;;26.24;100.00
47983;BME280;33751;50.816;-1.214;2024-02-16T06:53:59;101192.30;;;26.78;100.00
47983;BME280;33751;50.816;-1.214;2024-02-16T06:56:26;101198.80;;;26.42;100.00
47983;BME280;33751;50.816;-1.214;2024-02-16T06:58:53;101205.62;;;26.45;100.00
47983;BME280;33751;50.816;-1.214;2024-02-16T07:01:20;101209.39;;;26.51;100.00
47983;BME280;33751;50.816;-1.214;2024-02-16T07:03:46;101216.42;;;26.56;100.00
47983;BME280;33751;50.816;-1.214;2024-02-16T07:06:13;101219.81;;;26.79;100.00
47983;BME280;33751;50.816;-1.214;2024-02-16T07:08:39;101224.95;;;26.61;100.00
47983;BME280;33751;50.816;-1.214;2024-02-16T07:11:07;101230.42;;;26.56;100.00
47983;BME280;33751;50.816;-1.214;2024-02-16T07:13:34;101236.78;;;26.68;100.00
47983;BME280;33751;50.816;-1.214;2024-02-16T07:16:01;101240.05;;;26.74;100.00
47983;BME280;33751;50.816;-1.214;2024-02-16T07:18:28;101247.58;;;27.11;100.00
47983;BME280;33751;50.816;-1.214;2024-02-16T07:20:54;101254.77;;;27.08;100.00
47983;BME280;33751;50.816;-1.214;2024-02-16T07:23:22;101258.75;;;26.59;100.00
47983;BME280;33751;50.816;-1.214;2024-02-16T07:25:49;101264.97;;;27.17;100.00
47983;BME280;33751;50.816;-1.214;2024-02-16T07:28:15;101269.94;;;27.00;100.00
47983;BME280;33751;50.816;-1.214;2024-02-16T07:30:42;101275.38;;;26.62;100.00
47983;BME280;33751;50.816;-1.214;2024-02-16T07:33:08;101280.78;;;26.86;100.00
47983;BME280;33751;50.816;-1.214;2024-02-16T07:35:35;101285.43;;;27.53;100.00
47983;BME280;33751;50.816;-1.214;2024-02-16T07:38:02;101290.32;;;27.67;100.00
47983;BME280;33751;50.816;-1.214;2024-02-16T07:40:30;101294.03;;;27.27;100.00
47983;BME280;33751;50.816;-1.214;2024-02-16T07:42:56;101303.72;;;27.80;100.00
47983;BME280;33751;50.816;-1.214;2024-02-16T07:45:24;101311.26;;;27.96;100.00
47983;BME280;33751;50.816;-1.214;2024-02-16T07:47:51;101320.10;;;27.73;100.00
47983;BME280;33751;50.816;-1.214;2024-02-16T07:50:19;101323.52;;;28.28;100.00
47983;BME280;33751;50.816;-1.214;2024-02-16T07:52:46;101327.18;;;28.31;100.00
47983;BME280;33751;50.816;-1.214;2024-02-16T07:55:13;101332.41;;;28.61;100.00
47983;BME280;33751;50.816;-1.214;2024-02-16T07:57:41;101339.36;;;28.77;100.00
47983;BME280;33751;50.816;-1.214;2024-02-16T08:00:08;101343.58;;;28.08;100.00
47983;BME280;33751;50.816;-1.214;2024-02-16T08:02:35;101346.08;;;28.45;100.00
47983;BME280;33751;50.816;-1.214;2024-02-16T08:05:01;101346.44;;;28.27;100.00
47983;BME280;33751;50.816;-1.214;2024-02-16T08:07:28;101349.72;;;28.95;100.00
47983;BME280;33751;50.816;-1.214;2024-02-16T08:09:55;101348.92;;;29.80;100.00
47983;BME280;33751;50.816;-1.214;2024-02-16T08:12:22;101345.78;;;30.08;100.00
47983;BME280;33751;50.816;-1.214;2024-02-16T08:14:48;101347.28;;;30.32;100.00
47983;BME280;33751;50.816;-1.214;2024-02-16T08:17:14;101353.86;;;30.18;100.00
47983;BME280;33751;50.816;-1.214;2024-02-16T08:19:41;101360.58;;;30.23;100.00
47983;BME280;33751;50.816;-1.214;2024-02-16T08:22:08;101363.41;;;30.32;100.00
47983;BME280;33751;50.816;-1.214;2024-02-16T08:24:36;101369.83;;;29.72;100.00
47983;BME280;33751;50.816;-1.214;2024-02-16T08:27:03;101377.95;;;29.50;100.00
47983;BME280;33751;50.816;-1.214;2024-02-16T08:29:30;101384.67;;;29.54;100.00
47983;BME280;33751;50.816;-1.214;2024-02-16T08:31:57;101392.02;;;29.64;100.00
47983;BME280;33751;50.816;-1.214;2024-02-16T08:34:23;101391.68;;;30.57;100.00
47983;BME280;33751;50.816;-1.214;2024-02-16T08:36:51;101398.28;;;31.11;100.00
47983;BME280;33751;50.816;-1.214;2024-02-16T08:39:17;101402.52;;;32.16;100.00
47983;BME280;33751;50.816;-1.214;2024-02-16T08:41:44;101412.28;;;30.99;100.00
47983;BME280;33751;50.816;-1.214;2024-02-16T08:44:11;101423.34;;;30.41;100.00
47983;BME280;33751;50.816;-1.214;2024-02-16T08:46:37;101436.18;;;29.92;100.00
47983;BME280;33751;50.816;-1.214;2024-02-16T08:49:04;101449.10;;;29.81;100.00
47983;BME280;33751;50.816;-1.214;2024-02-16T08:51:31;101458.63;;;29.94;100.00
47983;BME280;33751;50.816;-1.214;2024-02-16T08:53:58;101462.36;;;29.34;100.00
47983;BME280;33751;50.816;-1.214;2024-02-16T08:56:25;101469.75;;;29.10;100.00
47983;BME280;33751;50.816;-1.214;2024-02-16T08:58:52;101477.17;;;28.98;100.00
47983;BME280;33751;50.816;-1.214;2024-02-16T09:01:30;101477.73;;;28.52;100.00
47983;BME280;33751;50.816;-1.214;2024-02-16T09:03:57;101480.28;;;28.48;100.00
47983;BME280;33751;50.816;-1.214;2024-02-16T09:06:24;101479.52;;;28.74;100.00
47983;BME280;33751;50.816;-1.214;2024-02-16T09:08:51;101482.64;;;28.93;100.00
47983;BME280;33751;50.816;-1.214;2024-02-16T09:11:18;101485.70;;;29.09;100.00
47983;BME280;33751;50.816;-1.214;2024-02-16T09:13:45;101491.97;;;29.81;100.00
47983;BME280;33751;50.816;-1.214;2024-02-16T09:16:12;101498.25;;;29.91;100.00
47983;BME280;33751;50.816;-1.214;2024-02-16T09:18:38;101496.47;;;30.13;100.00
47983;BME280;33751;50.816;-1.214;2024-02-16T09:21:06;101497.43;;;30.46;100.00
47983;BME280;33751;50.816;-1.214;2024-02-16T09:23:34;101503.48;;;30.34;100.00
47983;BME280;33751;50.816;-1.214;2024-02-16T09:26:02;101503.88;;;30.68;100.00
47983;BME280;33751;50.816;-1.214;2024-02-16T09:28:29;101511.25;;;30.45;100.00
47983;BME280;33751;50.816;-1.214;2024-02-16T09:30:56;101515.08;;;30.84;100.00
47983;BME280;33751;50.816;-1.214;2024-02-16T09:33:23;101526.03;;;30.41;100.00
47983;BME280;33751;50.816;-1.214;2024-02-16T09:35:50;101526.40;;;30.07;100.00
47983;BME280;33751;50.816;-1.214;2024-02-16T09:38:18;101528.30;;;30.41;100.00
47983;BME280;33751;50.816;-1.214;2024-02-16T09:40:45;101531.22;;;30.89;100.00
47983;BME280;33751;50.816;-1.214;2024-02-16T09:43:23;101530.65;;;30.97;100.00
47983;BME280;33751;50.816;-1.214;2024-02-16T09:45:53;101533.74;;;31.15;100.00
47983;BME280;33751;50.816;-1.214;2024-02-16T09:48:21;101539.04;;;30.94;100.00
47983;BME280;33751;50.816;-1.214;2024-02-16T09:50:50;101544.52;;;30.65;100.00
47983;BME280;33751;50.816;-1.214;2024-02-16T09:53:18;101548.87;;;31.10;100.00
47983;BME280;33751;50.816;-1.214;2024-02-16T09:55:46;101550.35;;;31.11;100.00
47983;BME280;33751;50.816;-1.214;2024-02-16T09:58:14;101552.23;;;31.55;100.00
47983;BME280;33751;50.816;-1.214;2024-02-16T10:00:41;101550.92;;;31.42;100.00
47983;BME280;33751;50.816;-1.214;2024-02-16T10:03:08;101559.70;;;31.36;100.00
47983;BME280;33751;50.816;-1.214;2024-02-16T10:05:35;101561.57;;;31.32;100.00
47983;BME280;33751;50.816;-1.214;2024-02-16T10:08:11;101567.47;;;31.39;100.00
47983;BME280;33751;50.816;-1.214;2024-02-16T10:10:38;101570.62;;;31.15;100.00
47983;BME280;33751;50.816;-1.214;2024-02-16T10:13:06;101577.63;;;31.78;100.00
47983;BME280;33751;50.816;-1.214;2024-02-16T10:15:34;101585.28;;;31.52;100.00
47983;BME280;33751;50.816;-1.214;2024-02-16T10:18:02;101591.63;;;31.65;100.00
47983;BME280;33751;50.816;-1.214;2024-02-16T10:20:29;101594.75;;;31.33;100.00
47983;BME280;33751;50.816;-1.214;2024-02-16T10:23:05;101599.51;;;31.82;100.00
47983;BME280;33751;50.816;-1.214;2024-02-16T10:25:32;101602.09;;;31.59;100.00
47983;BME280;33751;50.816;-1.214;2024-02-16T10:28:03;101605.02;;;31.56;100.00
47983;BME280;33751;50.816;-1.214;2024-02-16T10:30:30;101611.62;;;31.61;100.00
47983;BME280;33751;50.816;-1.214;2024-02-16T10:33:01;101612.78;;;31.81;100.00
47983;BME280;33751;50.816;-1.214;2024-02-16T10:35:28;101616.04;;;31.73;100.00
47983;BME280;33751;50.816;-1.214;2024-02-16T10:37:56;101622.36;;;31.71;100.00
47983;BME280;33751;50.816;-1.214;2024-02-16T10:40:23;101626.05;;;31.94;100.00
47983;BME280;33751;50.816;-1.214;2024-02-16T10:42:50;101626.37;;;31.81;100.00
47983;BME280;33751;50.816;-1.214;2024-02-16T10:45:18;101627.10;;;31.65;100.00
47983;BME280;33751;50.816;-1.214;2024-02-16T10:47:45;101637.15;;;31.11;100.00
47983;BME280;33751;50.816;-1.214;2024-02-16T10:50:12;101643.47;;;30.62;100.00
47983;BME280;33751;50.816;-1.214;2024-02-16T10:52:41;101649.10;;;30.32;100.00
47983;BME280;33751;50.816;-1.214;2024-02-16T10:55:09;101649.55;;;30.70;100.00
47983;BME280;33751;50.816;-1.214;2024-02-16T10:57:39;101652.03;;;30.68;100.00
47983;BME280;33751;50.816;-1.214;2024-02-16T11:00:08;101654.28;;;30.95;100.00
47983;BME280;33751;50.816;-1.214;2024-02-16T11:02:51;101658.37;;;30.64;100.00
47983;BME280;33751;50.816;-1.214;2024-02-16T11:05:18;101660.62;;;30.55;100.00
47983;BME280;33751;50.816;-1.214;2024-02-16T11:07:45;101659.98;;;30.45;100.00
47983;BME280;33751;50.816;-1.214;2024-02-16T11:10:13;101662.71;;;30.55;100.00
47983;BME280;33751;50.816;-1.214;2024-02-16T11:12:44;101663.65;;;30.45;100.00
47983;BME280;33751;50.816;-1.214;2024-02-16T11:15:13;101666.84;;;30.58;100.00
47983;BME280;33751;50.816;-1.214;2024-02-16T11:17:40;101671.07;;;30.37;100.00
47983;BME280;33751;50.816;-1.214;2024-02-16T11:20:08;101671.56;;;30.62;100.00
47983;BME280;33751;50.816;-1.214;2024-02-16T11:22:37;101673.25;;;30.50;100.00
47983;BME280;33751;50.816;-1.214;2024-02-16T11:25:05;101678.85;;;30.19;100.00
47983;BME280;33751;50.816;-1.214;2024-02-16T11:27:33;101685.54;;;30.01;100.00
47983;BME280;33751;50.816;-1.214;2024-02-16T11:30:01;101688.57;;;30.27;100.00
47983;BME280;33751;50.816;-1.214;2024-02-16T11:32:32;101688.74;;;30.45;100.00
47983;BME280;33751;50.816;-1.214;2024-02-16T11:35:05;101694.70;;;30.37;100.00
47983;BME280;33751;50.816;-1.214;2024-02-16T11:37:31;101693.59;;;30.22;100.00
47983;BME280;33751;50.816;-1.214;2024-02-16T11:39:57;101692.15;;;30.13;100.00
47983;BME280;33751;50.816;-1.214;2024-02-16T11:42:24;101690.80;;;29.81;100.00
47983;BME280;33751;50.816;-1.214;2024-02-16T11:44:52;101686.57;;;29.97;100.00
47983;BME280;33751;50.816;-1.214;2024-02-16T11:47:21;101685.91;;;29.97;100.00
47983;BME280;33751;50.816;-1.214;2024-02-16T11:49:48;101688.30;;;30.00;100.00
47983;BME280;33751;50.816;-1.214;2024-02-16T11:52:15;101688.09;;;29.66;100.00
47983;BME280;33751;50.816;-1.214;2024-02-16T11:54:43;101689.70;;;29.85;100.00
47983;BME280;33751;50.816;-1.214;2024-02-16T11:57:10;101695.45;;;29.82;100.00
47983;BME280;33751;50.816;-1.214;2024-02-16T11:59:37;101698.62;;;29.88;100.00
47983;BME280;33751;50.816;-1.214;2024-02-16T12:02:04;101702.99;;;29.78;100.00
47983;BME280;33751;50.816;-1.214;2024-02-16T12:04:31;101703.18;;;30.07;100.00
47983;BME280;33751;50.816;-1.214;2024-02-16T12:07:00;101702.23;;;30.13;100.00
47983;BME280;33751;50.816;-1.214;2024-02-16T12:09:27;101705.57;;;30.33;100.00
47983;BME280;33751;50.816;-1.214;2024-02-16T12:11:55;101708.73;;;29.83;100.00
47983;BME280;33751;50.816;-1.214;2024-02-16T12:14:22;101714.28;;;29.87;100.00
47983;BME280;33751;50.816;-1.214;2024-02-16T12:16:50;101714.15;;;29.83;100.00
47983;BME280;33751;50.816;-1.214;2024-02-16T12:19:18;101713.03;;;29.40;100.00
47983;BME280;33751;50.816;-1.214;2024-02-16T12:21:45;101714.78;;;29.16;100.00
47983;BME280;33751;50.816;-1.214;2024-02-16T12:24:15;101704.38;;;29.42;100.00
47983;BME280;33751;50.816;-1.214;2024-02-16T12:26:41;101705.93;;;29.42;100.00
47983;BME280;33751;50.816;-1.214;2024-02-16T12:29:08;101703.36;;;29.86;100.00